Time;durP1;ratioP1;P1;durP2;ratioP2;P2;SDS_P1;SDS_P2;PMS_P1;PMS_P2;Temp;Humidity;BMP_temperature;BMP_pressure;BME280_temperature;BME280_humidity;BME280_pressure;Samples;Min_cycle;Max_cycle;Signal;HPM_P1;HPM_P2
2022/05/09 00:01:58;;;;;;;5.38;2.35;;;;;;;13.98;63.36;101285.41;5047369;28;20111;-70
2022/05/09 00:04:25;;;;;;;5.93;2.08;;;;;;;13.94;63.56;101288.28;5046162;28;20576;-71
2022/05/09 00:06:52;;;;;;;5.22;2.10;;;;;;;13.89;63.64;101280.47;5044190;28;20055;-75
2022/05/09 00:09:18;;;;;;;4.82;2.00;;;;;;;13.85;63.96;101284.22;5040352;28;20133;-71
2022/05/09 00:11:45;;;;;;;4.57;2.33;;;;;;;13.85;64.31;101288.72;5041322;28;20064;-69
2022/05/09 00:14:12;;;;;;;6.28;2.50;;;;;;;13.81;64.32;101292.44;5043435;28;20525;-71
2022/05/09 00:16:39;;;;;;;3.70;2.15;;;;;;;13.77;64.83;101285.53;5043555;28;20128;-69
2022/05/09 00:19:08;;;;;;;6.53;2.60;;;;;;;13.74;64.55;101283.84;5040869;28;20472;-69
2022/05/09 00:21:37;;;;;;;4.45;2.17;;;;;;;13.73;64.81;101282.13;5038220;28;20049;-71
2022/05/09 00:24:05;;;;;;;4.67;2.50;;;;;;;13.73;64.70;101291.91;5040151;28;20494;-72
2022/05/09 00:26:32;;;;;;;5.85;2.58;;;;;;;13.66;65.26;101286.03;5043366;28;20515;-76
2022/05/09 00:28:59;;;;;;;6.63;2.13;;;;;;;13.52;65.51;101270.69;5042954;28;20052;-69
2022/05/09 00:31:26;;;;;;;5.57;2.33;;;;;;;13.61;65.30;101288.88;5040492;28;20115;-69
2022/05/09 00:33:53;;;;;;;6.35;2.47;;;;;;;13.60;65.61;101287.16;5042006;28;20052;-70
2022/05/09 00:36:21;;;;;;;3.90;2.17;;;;;;;13.52;65.61;101286.66;5040509;28;20088;-73
2022/05/09 00:38:49;;;;;;;5.38;2.58;;;;;;;13.52;65.96;101284.00;5043871;28;20056;-69
2022/05/09 00:41:29;;;;;;;4.13;1.98;;;;;;;13.49;65.79;101288.56;5044566;28;20092;-75
2022/05/09 00:43:58;;;;;;;5.28;2.15;;;;;;;13.36;65.95;101280.28;5043802;28;20084;-72
2022/05/09 00:46:25;;;;;;;4.47;2.53;;;;;;;13.46;65.99;101294.91;5041822;28;20053;-69
2022/05/09 00:48:52;;;;;;;7.07;2.55;;;;;;;13.46;66.11;101292.22;5043479;28;20160;-70
2022/05/09 00:51:25;;;;;;;7.90;2.70;;;;;;;13.46;65.64;101283.38;5038907;28;20183;-68
2022/05/09 00:53:54;;;;;;;8.32;2.78;;;;;;;13.49;66.02;101292.09;5046485;28;20555;-76
2022/05/09 00:56:27;;;;;;;4.65;2.47;;;;;;;13.43;66.36;101291.50;5027597;28;20049;-69
2022/05/09 00:59:02;;;;;;;4.90;2.50;;;;;;;13.33;66.15;101285.72;5041046;28;20392;-69
2022/05/09 01:01:29;;;;;;;5.47;2.20;;;;;;;13.32;66.47;101289.31;5044812;28;20081;-68
2022/05/09 01:04:15;;;;;;;4.50;2.80;;;;;;;13.33;66.32;101291.91;5042278;28;20072;-69
2022/05/09 01:06:42;;;;;;;5.07;2.40;;;;;;;13.31;66.39;101282.28;5041324;28;20505;-70
2022/05/09 01:09:12;;;;;;;8.95;2.50;;;;;;;13.19;66.73;101277.50;5041942;28;20057;-71
2022/05/09 01:11:43;;;;;;;6.07;2.50;;;;;;;13.20;66.61;101284.56;5045701;28;20402;-75
2022/05/09 01:14:13;;;;;;;;;;;;;;;13.23;67.00;101287.06;5040654;28;20069;-69
2022/05/09 01:16:40;;;;;;;5.00;2.50;;;;;;;13.23;66.66;101282.59;5037171;28;20020;-69
2022/05/09 01:19:17;;;;;;;5.55;2.50;;;;;;;13.11;66.41;101267.16;5036672;28;20564;-73
2022/05/09 01:21:43;;;;;;;4.35;2.35;;;;;;;13.12;66.52;101263.56;5046130;28;20377;-70
2022/05/09 01:24:17;;;;;;;7.72;2.60;;;;;;;13.18;66.75;101275.78;5044472;28;20148;-70
2022/05/09 01:26:44;;;;;;;4.88;2.75;;;;;;;13.22;66.87;101283.53;5041081;28;20049;-69
2022/05/09 01:29:31;;;;;;;5.47;2.38;;;;;;;13.24;66.50;101283.47;5023830;28;20052;-72
2022/05/09 01:31:58;;;;;;;6.32;2.50;;;;;;;13.25;67.04;101277.22;5031080;28;20052;-72
2022/05/09 01:34:27;;;;;;;5.78;2.40;;;;;;;13.21;66.88;101275.63;5042781;28;20056;-73
2022/05/09 01:36:58;;;;;;;5.13;2.95;;;;;;;13.17;66.38;101280.22;5040388;28;20064;-71
2022/05/09 01:39:24;;;;;;;4.97;2.55;;;;;;;13.19;66.42;101278.38;5043331;28;20331;-69
2022/05/09 01:41:51;;;;;;;5.75;2.53;;;;;;;13.17;66.77;101290.00;5033720;28;20077;-73
2022/05/09 01:44:18;;;;;;;6.20;2.53;;;;;;;13.13;67.01;101291.00;5034640;28;20080;-70
2022/05/09 01:49:34;;;;;;;3.95;2.15;;;;;;;13.02;67.11;101291.50;5037899;28;20072;-69
2022/05/09 01:52:05;;;;;;;7.95;2.67;;;;;;;12.87;67.23;101279.72;5041154;28;20053;-78
2022/05/09 01:54:33;;;;;;;4.68;2.30;;;;;;;12.78;67.04;101277.44;5045755;28;20064;-71
2022/05/09 01:57:00;;;;;;;6.45;2.58;;;;;;;12.77;67.68;101281.00;5045225;28;20052;-72
2022/05/09 01:59:26;;;;;;;6.15;2.20;;;;;;;12.73;67.61;101290.06;5041657;28;20065;-72
2022/05/09 02:02:00;;;;;;;7.25;2.88;;;;;;;12.74;68.03;101290.94;5043144;28;20052;-71
2022/05/09 02:04:27;;;;;;;4.57;2.35;;;;;;;12.68;68.21;101289.38;5043180;28;20403;-69
2022/05/09 02:06:55;;;;;;;7.32;2.50;;;;;;;12.72;68.35;101298.09;5042886;28;20048;-68
2022/05/09 02:09:21;;;;;;;6.55;2.47;;;;;;;12.70;68.22;101303.47;5048104;28;20378;-69
2022/05/09 02:11:49;;;;;;;3.75;2.40;;;;;;;12.69;68.73;101301.75;5042554;28;20456;-69
2022/05/09 02:14:15;;;;;;;8.50;2.70;;;;;;;12.72;67.89;101301.63;5043406;28;20065;-68
2022/05/09 02:16:42;;;;;;;4.60;2.38;;;;;;;12.67;68.60;101290.31;5043257;28;20485;-69
2022/05/09 02:19:09;;;;;;;5.80;2.50;;;;;;;12.66;68.41;101293.88;5041586;28;20041;-70
2022/05/09 02:21:35;;;;;;;5.15;2.63;;;;;;;12.67;68.74;101290.31;5040466;28;20049;-70
2022/05/09 02:24:03;;;;;;;4.75;2.90;;;;;;;12.69;68.26;101295.56;5042725;28;20045;-71
2022/05/09 02:26:30;;;;;;;6.43;2.42;;;;;;;12.62;68.39;101289.63;5039586;28;20107;-68
2022/05/09 02:28:56;;;;;;;6.85;2.33;;;;;;;12.53;68.48;101279.38;5043203;28;20053;-70
2022/05/09 02:31:23;;;;;;;5.28;2.50;;;;;;;12.43;68.83;101268.28;5037196;28;20100;-69
2022/05/09 02:33:50;;;;;;;6.18;2.40;;;;;;;12.40;68.87;101265.75;5037625;28;20433;-70
2022/05/09 02:36:17;;;;;;;6.68;2.58;;;;;;;12.41;69.22;101266.59;5038430;28;20053;-71
2022/05/09 02:38:44;;;;;;;6.93;2.58;;;;;;;12.55;69.31;101288.16;5022208;28;20116;-69
2022/05/09 02:41:10;;;;;;;6.63;2.80;;;;;;;12.53;69.14;101284.69;5034929;28;20107;-72
2022/05/09 02:43:37;;;;;;;5.95;3.08;;;;;;;12.54;69.15;101294.41;5039530;28;20057;-68
2022/05/09 02:46:04;;;;;;;4.95;2.65;;;;;;;12.53;69.56;101295.31;5040649;28;20535;-69
2022/05/09 02:48:35;;;;;;;5.72;2.88;;;;;;;12.53;69.33;101282.03;5039986;28;20192;-70
2022/05/09 02:51:04;;;;;;;6.95;2.85;;;;;;;12.51;69.40;101302.50;5046607;28;20064;-69
2022/05/09 02:53:32;;;;;;;6.65;2.90;;;;;;;12.48;69.54;101297.28;5042092;28;20464;-71
2022/05/09 02:55:58;;;;;;;5.53;2.63;;;;;;;12.41;69.59;101294.03;5046534;28;20124;-68
2022/05/09 02:58:26;;;;;;;5.57;2.63;;;;;;;12.41;69.20;101293.19;5045494;28;20041;-69
2022/05/09 03:00:52;;;;;;;7.13;2.67;;;;;;;12.40;69.54;101296.75;5042701;28;20124;-71
2022/05/09 03:06:05;;;;;;;8.73;2.65;;;;;;;12.34;69.64;101299.66;5040568;28;20057;-70
2022/05/09 03:08:31;;;;;;;5.20;2.75;;;;;;;12.27;69.93;101294.59;5043151;28;20056;-70
2022/05/09 03:10:58;;;;;;;6.50;2.80;;;;;;;12.18;70.20;101302.03;5019928;28;20108;-73
2022/05/09 03:13:24;;;;;;;6.18;2.90;;;;;;;12.18;70.39;101297.59;5040835;28;20045;-69
2022/05/09 03:15:51;;;;;;;7.05;3.30;;;;;;;12.15;70.16;101299.50;5042602;28;20060;-73
2022/05/09 03:18:23;;;;;;;7.95;2.45;;;;;;;12.09;70.61;101297.97;5039870;28;20069;-69
2022/05/09 03:20:51;;;;;;;6.05;2.50;;;;;;;12.09;70.68;101297.97;5043085;28;20091;-70
2022/05/09 03:23:18;;;;;;;8.23;3.00;;;;;;;12.04;71.29;101294.63;5040483;28;20136;-69
2022/05/09 03:25:45;;;;;;;6.72;2.90;;;;;;;12.00;71.28;101294.78;5036009;28;20057;-72
2022/05/09 03:28:16;;;;;;;5.68;2.47;;;;;;;11.96;71.73;101298.50;5043668;28;20073;-71
2022/05/09 03:30:44;;;;;;;4.82;2.50;;;;;;;11.97;71.67;101298.41;5044887;28;20095;-68
2022/05/09 03:33:14;;;;;;;5.55;2.67;;;;;;;11.89;71.60;101285.44;5044222;28;20060;-77
2022/05/09 03:35:42;;;;;;;5.10;3.13;;;;;;;11.89;72.14;101303.16;5040844;28;20049;-69
2022/05/09 03:38:09;;;;;;;5.18;2.80;;;;;;;11.85;72.67;101297.09;5048546;28;20076;-69
2022/05/09 03:40:35;;;;;;;7.15;2.97;;;;;;;11.72;72.76;101281.66;5039717;28;20576;-73
2022/05/09 03:43:02;;;;;;;9.43;3.30;;;;;;;11.74;72.55;101288.66;5044763;28;20074;-69
2022/05/09 03:45:29;;;;;;;4.13;2.90;;;;;;;11.58;73.09;101269.78;5042406;28;20044;-68
2022/05/09 03:47:55;;;;;;;4.80;2.85;;;;;;;11.77;72.93;101298.34;5042366;28;20079;-69
2022/05/09 03:50:23;;;;;;;5.35;3.30;;;;;;;11.72;73.06;101295.81;5043792;28;20049;-76
2022/05/09 03:52:49;;;;;;;7.55;3.40;;;;;;;11.81;73.19;101305.22;5044831;28;20065;-70
2022/05/09 03:55:16;;;;;;;8.65;3.30;;;;;;;11.81;73.36;101302.56;5038974;28;20140;-68
2022/05/09 03:57:47;;;;;;;9.00;3.10;;;;;;;11.77;73.28;101296.53;5042316;28;20045;-71
2022/05/09 04:00:14;;;;;;;;;;;;;;;11.80;73.22;101311.50;5047336;28;20127;-69
2022/05/09 04:02:43;;;;;;;7.22;2.92;;;;;;;11.78;73.55;101300.06;5044802;28;19932;-71
2022/05/09 04:05:15;;;;;;;7.88;2.80;;;;;;;11.78;73.67;101298.28;5043113;28;20052;-69
2022/05/09 04:07:53;;;;;;;8.43;3.20;;;;;;;11.84;73.11;101308.63;5043724;28;20378;-68
2022/05/09 04:10:24;;;;;;;7.68;3.47;;;;;;;11.82;73.28;101309.63;5043055;28;20064;-74
2022/05/09 04:12:51;;;;;;;9.40;4.00;;;;;;;11.84;73.37;101308.63;5043267;28;20103;-70
2022/05/09 04:18:06;;;;;;;7.97;3.22;;;;;;;12.03;73.24;101318.56;5039794;28;20057;-71
2022/05/09 04:20:33;;;;;;;8.75;3.13;;;;;;;12.08;72.62;101319.25;5043425;28;20425;-72
2022/05/09 04:23:00;;;;;;;5.55;3.53;;;;;;;12.08;72.01;101312.16;5046901;28;20167;-69
2022/05/09 04:25:29;;;;;;;8.95;3.05;;;;;;;12.12;72.12;101323.53;5045489;28;20402;-69
2022/05/09 04:27:57;;;;;;;6.72;3.33;;;;;;;11.91;72.34;101277.44;5044860;28;20199;-72
2022/05/09 04:30:24;;;;;;;6.75;3.20;;;;;;;12.09;71.80;101316.56;5040510;28;20065;-75
2022/05/09 04:32:51;;;;;;;6.25;3.20;;;;;;;12.02;71.81;101311.53;5044538;28;20053;-70
2022/05/09 04:35:20;;;;;;;8.43;3.63;;;;;;;12.04;72.01;101321.16;5047888;28;20049;-71
2022/05/09 04:37:48;;;;;;;8.77;3.50;;;;;;;12.05;72.38;101317.59;5044548;28;20060;-69
2022/05/09 04:40:17;;;;;;;9.60;3.72;;;;;;;12.07;72.15;101318.41;5039747;28;20592;-72
2022/05/09 04:42:44;;;;;;;7.93;3.35;;;;;;;12.10;72.42;101318.28;5045368;28;20138;-70
2022/05/09 04:45:13;;;;;;;8.55;3.20;;;;;;;12.19;71.96;101323.22;5044296;28;20072;-74
2022/05/09 04:47:41;;;;;;;7.30;3.15;;;;;;;12.24;71.48;101323.06;5042326;28;20044;-69
2022/05/09 04:50:10;;;;;;;4.78;3.22;;;;;;;12.18;71.27;101318.84;5042443;28;20076;-73
2022/05/09 04:52:37;;;;;;;6.85;3.17;;;;;;;12.22;71.45;101315.16;5042289;28;20118;-69
2022/05/09 04:55:04;;;;;;;7.10;3.20;;;;;;;12.26;71.53;101321.22;5036862;28;20076;-72
2022/05/09 04:57:31;;;;;;;8.82;3.75;;;;;;;12.30;70.68;101320.13;5024910;28;20107;-68
2022/05/09 04:59:58;;;;;;;6.35;3.30;;;;;;;12.23;70.77;101300.94;5038726;28;20490;-72
2022/05/09 05:02:25;;;;;;;8.88;3.55;;;;;;;12.43;70.79;101318.75;5044029;28;20060;-68
2022/05/09 05:04:52;;;;;;;10.75;3.78;;;;;;;12.43;70.68;101323.19;5043286;28;20076;-71
2022/05/09 05:07:19;;;;;;;7.78;3.60;;;;;;;12.35;70.44;101330.59;5045065;28;20069;-69
2022/05/09 05:09:45;;;;;;;8.85;4.43;;;;;;;12.39;71.01;101334.88;5045897;28;20099;-68
2022/05/09 05:12:12;;;;;;;8.48;3.42;;;;;;;12.37;70.47;101326.09;5043079;28;20098;-69
2022/05/09 05:14:38;;;;;;;5.32;3.10;;;;;;;12.39;70.25;101308.31;5040872;28;20079;-73
2022/05/09 05:17:11;;;;;;;6.63;3.45;;;;;;;12.65;69.83;101337.34;5045929;28;20045;-69
2022/05/09 05:19:42;;;;;;;5.75;3.50;;;;;;;12.74;69.16;101339.63;5040560;28;20091;-70
2022/05/09 05:22:15;;;;;;;6.00;3.33;;;;;;;12.57;69.41;101299.59;5034758;28;20442;-69
2022/05/09 05:24:44;;;;;;;6.88;3.58;;;;;;;12.88;69.33;101342.59;5029941;28;20127;-77
2022/05/09 05:27:13;;;;;;;8.50;4.05;;;;;;;13.01;68.72;101340.28;5047761;28;20052;-79
2022/05/09 05:29:41;;;;;;;7.78;3.95;;;;;;;13.10;68.24;101331.03;5040481;28;20248;-73
2022/05/09 05:32:17;;;;;;;5.43;3.03;;;;;;;13.22;67.97;101346.53;5042511;28;20135;-77
2022/05/09 05:34:43;;;;;;;11.02;3.83;;;;;;;13.25;68.94;101349.03;5040748;28;20049;-68
2022/05/09 05:37:10;;;;;;;5.35;3.10;;;;;;;13.23;67.41;101343.78;5038732;28;20765;-76
2022/05/09 05:39:37;;;;;;;7.28;3.65;;;;;;;13.32;67.67;101353.16;5041864;28;20451;-69
2022/05/09 05:42:05;;;;;;;7.07;3.45;;;;;;;13.33;66.66;101342.47;5039335;28;20151;-70
2022/05/09 05:44:32;;;;;;;9.10;3.85;;;;;;;13.39;66.53;101340.44;5036282;28;20110;-69
2022/05/09 05:46:59;;;;;;;5.22;3.38;;;;;;;13.44;66.51;101346.44;5039659;28;20118;-68
2022/05/09 05:49:25;;;;;;;5.78;3.55;;;;;;;13.42;66.33;101333.19;5039134;28;20133;-73
2022/05/09 05:51:52;;;;;;;9.50;3.50;;;;;;;13.67;65.52;101348.97;5043345;28;20049;-68
2022/05/09 05:54:19;;;;;;;10.98;3.53;;;;;;;13.75;65.95;101356.59;5038237;28;20111;-74
2022/05/09 05:56:45;;;;;;;7.68;2.90;;;;;;;13.63;64.55;101315.44;5022161;28;20057;-72
2022/05/09 05:59:12;;;;;;;7.28;3.10;;;;;;;13.89;64.08;101348.84;5038104;28;20219;-71
2022/05/09 06:01:38;;;;;;;7.38;3.40;;;;;;;13.95;63.80;101353.91;5018137;28;20068;-72
2022/05/09 06:04:05;;;;;;;7.78;3.35;;;;;;;13.93;63.65;101348.66;5042956;28;20037;-72
2022/05/09 06:06:32;;;;;;;11.90;3.60;;;;;;;14.00;63.18;101339.47;5039183;28;20049;-70
2022/05/09 06:08:59;;;;;;;4.18;3.17;;;;;;;14.23;63.46;101359.69;5040520;28;20099;-70
2022/05/09 06:11:25;;;;;;;6.38;3.20;;;;;;;14.35;62.95;101352.91;5045334;28;20041;-69
2022/05/09 06:13:52;;;;;;;5.57;3.08;;;;;;;14.53;61.99;101351.19;5042783;28;20128;-76
2022/05/09 06:16:19;;;;;;;6.00;3.13;;;;;;;14.76;61.38;101364.28;5042967;28;20083;-73
2022/05/09 06:18:51;;;;;;;8.93;3.38;;;;;;;14.89;61.13;101357.41;5039610;28;20056;-68
2022/05/09 06:21:19;;;;;;;6.93;3.10;;;;;;;15.14;60.97;101366.84;5039272;28;20397;-71
2022/05/09 06:23:46;;;;;;;6.18;2.90;;;;;;;15.66;60.24;101359.72;5039438;28;20049;-77
2022/05/09 06:26:14;;;;;;;5.95;2.80;;;;;;;16.17;56.95;101355.19;5043022;28;20049;-80
2022/05/09 06:28:42;;;;;;;6.47;2.97;;;;;;;16.75;55.57;101356.34;5039490;28;20044;-77
2022/05/09 06:31:08;;;;;;;10.60;5.82;;;;;;;17.15;54.05;101354.03;5044338;28;20140;-76
2022/05/09 06:33:36;;;;;;;11.32;3.63;;;;;;;17.59;52.85;101369.25;5046534;28;20364;-78
2022/05/09 06:36:03;;;;;;;5.40;2.95;;;;;;;17.94;52.20;101348.38;5044353;28;20409;-76
2022/05/09 06:38:30;;;;;;;7.22;3.13;;;;;;;18.52;49.81;101359.78;5042355;28;20041;-75
2022/05/09 06:41:00;;;;;;;6.93;3.35;;;;;;;18.72;48.55;101363.03;5041348;28;20109;-75
2022/05/09 06:43:28;;;;;;;6.35;3.55;;;;;;;18.85;48.90;101366.63;5034537;28;20046;-76
2022/05/09 06:45:54;;;;;;;8.35;3.17;;;;;;;18.92;49.10;101347.31;5041304;28;20361;-75
2022/05/09 06:48:21;;;;;;;5.07;2.80;;;;;;;19.18;48.42;101364.38;5039936;28;20073;-77
2022/05/09 06:50:48;;;;;;;5.85;3.33;;;;;;;19.18;48.25;101352.75;5041097;28;20045;-77
2022/05/09 06:53:17;;;;;;;6.60;2.78;;;;;;;19.03;50.34;101357.34;5039194;28;20475;-79
2022/05/09 06:55:47;;;;;;;6.97;3.28;;;;;;;18.93;49.29;101359.75;5043275;28;20049;-77
2022/05/09 06:58:17;;;;;;;6.53;3.28;;;;;;;19.19;47.77;101358.03;5038489;28;20056;-75
2022/05/09 07:00:45;;;;;;;5.95;2.80;;;;;;;19.45;47.10;101361.63;5040173;28;20045;-76
2022/05/09 07:03:12;;;;;;;5.82;2.90;;;;;;;19.67;46.68;101369.09;5037704;28;20140;-75
2022/05/09 07:05:43;;;;;;;9.43;3.28;;;;;;;19.59;47.74;101348.13;5038116;28;20057;-75
2022/05/09 07:08:11;;;;;;;6.45;2.60;;;;;;;19.98;46.17;101369.63;5034055;28;20759;-75
2022/05/09 07:10:38;;;;;;;6.25;2.80;;;;;;;20.16;44.73;101376.38;5040838;28;20041;-77
2022/05/09 07:13:05;;;;;;;4.82;2.78;;;;;;;20.16;45.18;101366.47;5037884;28;20502;-74
2022/05/09 07:15:34;;;;;;;5.03;3.00;;;;;;;20.02;44.59;101352.28;5042789;28;20045;-74
2022/05/09 07:18:03;;;;;;;7.75;2.78;;;;;;;19.92;44.86;101370.91;5038350;28;20110;-72
2022/05/09 07:20:31;;;;;;;8.82;3.00;;;;;;;19.80;45.20;101367.28;5034756;28;20048;-72
2022/05/09 07:23:06;;;;;;;7.63;2.70;;;;;;;20.00;45.57;101373.03;5044178;28;20084;-74
2022/05/09 07:25:32;;;;;;;5.57;2.88;;;;;;;19.80;45.12;101348.47;5040183;28;20418;-77
2022/05/09 07:27:59;;;;;;;6.18;2.78;;;;;;;19.87;45.12;101365.00;5037457;28;20049;-75
2022/05/09 07:30:28;;;;;;;5.80;3.10;;;;;;;19.65;45.76;101341.47;5037171;28;20044;-77
2022/05/09 07:32:55;;;;;;;7.10;2.72;;;;;;;19.79;45.67;101376.31;5034870;28;20080;-77
2022/05/09 07:35:23;;;;;;;5.55;2.88;;;;;;;19.77;46.19;101354.03;5039240;28;20469;-75
2022/05/09 07:37:51;;;;;;;8.13;2.90;;;;;;;20.02;45.97;101368.44;5045923;28;20056;-76
2022/05/09 07:40:19;;;;;;;8.07;3.10;;;;;;;20.19;44.41;101362.72;5036059;28;20071;-75
2022/05/09 07:42:47;;;;;;;8.70;3.00;;;;;;;20.15;45.52;101337.00;5040469;28;20044;-76
2022/05/09 07:45:17;;;;;;;7.88;2.90;;;;;;;20.23;45.38;101362.38;5038659;28;20057;-74
2022/05/09 07:47:44;;;;;;;;;;;;;;;20.26;45.56;101372.06;5038544;28;20115;-74
2022/05/09 07:50:13;;;;;;;6.82;3.00;;;;;;;20.33;45.74;101346.44;5037823;28;19965;-77
2022/05/09 07:52:41;;;;;;;6.10;2.70;;;;;;;20.57;44.38;101365.34;5040650;28;20072;-76
2022/05/09 07:55:09;;;;;;;8.00;2.90;;;;;;;20.94;43.25;101369.72;5040777;28;20115;-77
2022/05/09 07:57:36;;;;;;;5.47;2.75;;;;;;;21.39;42.14;101358.31;5022618;28;20046;-77
2022/05/09 08:00:05;;;;;;;6.30;2.30;;;;;;;21.91;41.52;101366.72;5042299;28;20049;-75
2022/05/09 08:02:33;;;;;;;4.80;2.90;;;;;;;22.28;40.58;101350.34;5043424;28;20041;-78
2022/05/09 08:05:00;;;;;;;4.68;2.53;;;;;;;22.44;39.18;101358.91;5043316;28;20076;-76
2022/05/09 08:07:27;;;;;;;8.23;3.05;;;;;;;22.54;40.10;101365.25;5043135;28;20053;-77
2022/05/09 08:09:54;;;;;;;7.38;3.00;;;;;;;22.40;39.46;101368.22;5043297;28;20061;-77
2022/05/09 08:12:21;;;;;;;7.47;2.90;;;;;;;22.33;40.33;101357.09;5041409;28;20540;-74
2022/05/09 08:14:48;;;;;;;10.85;3.90;;;;;;;22.44;40.82;101363.44;5043835;28;20477;-76
2022/05/09 08:17:15;;;;;;;7.00;2.97;;;;;;;22.55;39.86;101355.31;5042840;28;20527;-74
2022/05/09 08:19:43;;;;;;;8.02;2.90;;;;;;;22.35;40.13;101360.50;5043261;28;20048;-77
2022/05/09 08:22:09;;;;;;;5.38;2.70;;;;;;;21.98;41.61;101369.81;5044738;28;20915;-78
2022/05/09 08:24:42;;;;;;;6.68;3.00;;;;;;;22.03;42.12;101352.31;5024120;28;20049;-80
2022/05/09 08:27:09;;;;;;;7.18;3.00;;;;;;;21.99;41.83;101364.31;5041512;28;20045;-79
2022/05/09 08:29:37;;;;;;;3.97;2.92;;;;;;;21.33;42.65;101357.78;5046746;28;20045;-82
2022/05/09 08:32:14;;;;;;;8.52;3.35;;;;;;;21.05;43.62;101366.22;5049174;28;20122;-81
2022/05/09 08:34:42;;;;;;;6.35;3.15;;;;;;;20.70;44.89;101376.94;5012203;28;20489;-78
2022/05/09 08:37:10;;;;;;;6.43;3.08;;;;;;;20.69;45.09;101379.72;5044840;28;20052;-77
2022/05/09 08:39:36;;;;;;;4.38;2.60;;;;;;;20.79;45.29;101341.25;5042657;28;20068;-80
2022/05/09 08:42:07;;;;;;;10.55;3.25;;;;;;;21.13;44.43;101336.00;5044599;28;20053;-77
2022/05/09 08:44:59;;;;;;;9.13;3.28;;;;;;;21.32;43.70;101366.84;5040230;28;20053;-80
2022/05/09 08:47:51;;;;;;;5.85;3.05;;;;;;;21.13;44.56;101341.38;5043026;28;20148;-77
2022/05/09 08:50:39;;;;;;;7.40;3.05;;;;;;;21.24;44.55;101355.81;5044584;28;20053;-77
2022/05/09 08:53:19;;;;;;;6.72;3.28;;;;;;;21.40;44.35;101355.50;5040692;28;20049;-77
2022/05/09 08:55:46;;;;;;;;;;;;;;;21.44;44.39;101359.66;5044661;28;20083;-75
2022/05/09 08:58:40;;;;;;;5.18;2.95;;;;;;;22.01;43.42;101362.38;5029820;28;20507;-77
2022/05/09 09:01:27;;;;;;;4.93;2.97;;;;;;;22.52;42.34;101356.41;5040694;28;20085;-77
2022/05/09 09:03:56;;;;;;;8.15;3.90;;;;;;;22.67;41.65;101368.66;5035200;28;20654;-78
2022/05/09 09:06:41;;;;;;;7.80;3.50;;;;;;;22.53;42.15;101359.97;5045000;28;20071;-76
2022/05/09 09:09:41;;;;;;;6.07;3.50;;;;;;;22.20;42.39;101361.72;5044688;28;20132;-77
2022/05/09 09:12:45;;;;;;;5.95;3.45;;;;;;;21.95;42.99;101352.03;5028574;28;20080;-76
2022/05/09 09:15:35;;;;;;;6.70;3.75;;;;;;;21.81;43.71;101348.69;5046425;28;20122;-78
2022/05/09 09:18:15;;;;;;;6.35;3.72;;;;;;;21.70;44.83;101355.81;5040357;28;20065;-76
2022/05/09 09:21:03;;;;;;;7.65;3.95;;;;;;;21.41;45.78;101357.19;5040291;28;20076;-79
2022/05/09 09:24:07;;;;;;;10.35;3.65;;;;;;;21.13;46.62;101350.34;5042966;28;20058;-76
2022/05/09 09:27:01;;;;;;;8.20;4.25;;;;;;;21.13;46.16;101355.72;5040540;28;20176;-77
2022/05/09 09:29:39;;;;;;;7.13;3.50;;;;;;;21.07;46.93;101356.19;5048700;28;20123;-77
2022/05/09 09:32:10;;;;;;;7.10;4.20;;;;;;;20.97;46.28;101334.47;5047108;28;20063;-77
2022/05/09 09:35:18;;;;;;;6.72;3.70;;;;;;;21.11;46.21;101354.97;5040177;28;20060;-78
2022/05/09 09:38:10;;;;;;;7.90;3.38;;;;;;;21.15;46.69;101350.22;4963515;28;20114;-79
2022/05/09 09:40:38;;;;;;;7.63;4.32;;;;;;;20.99;47.21;101332.53;5039309;28;20038;-75
2022/05/09 09:43:05;;;;;;;6.78;3.85;;;;;;;20.79;47.54;101335.00;5046374;28;20079;-76
2022/05/09 09:45:35;;;;;;;6.90;3.60;;;;;;;20.94;47.46;101339.22;5044001;28;20060;-78
2022/05/09 09:48:12;;;;;;;7.07;3.90;;;;;;;21.14;46.15;101341.28;5044508;28;20069;-77
2022/05/09 09:51:05;;;;;;;8.73;4.28;;;;;;;21.20;47.17;101338.16;5040812;28;20073;-78
2022/05/09 09:53:38;;;;;;;7.03;3.40;;;;;;;21.19;47.13;101338.25;5039434;28;21361;-73
2022/05/09 09:56:20;;;;;;;5.38;3.90;;;;;;;21.40;45.90;101333.94;5043758;28;20064;-77
2022/05/09 09:58:50;;;;;;;7.60;3.65;;;;;;;21.60;46.15;101316.19;5049750;28;20071;-80
2022/05/09 10:01:30;;;;;;;6.13;3.08;;;;;;;21.90;45.79;101329.09;5045523;28;20040;-78
2022/05/09 10:04:05;;;;;;;8.50;3.50;;;;;;;22.00;44.28;101320.19;5044948;28;20156;-76
2022/05/09 10:06:35;;;;;;;5.88;3.88;;;;;;;21.93;44.21;101310.81;5043392;28;20133;-77
2022/05/09 10:09:08;;;;;;;5.70;3.75;;;;;;;21.96;44.54;101324.06;5041324;28;20389;-78
2022/05/09 10:11:35;;;;;;;7.45;4.35;;;;;;;21.84;44.00;101303.50;5040460;28;20052;-81
2022/05/09 10:14:05;;;;;;;4.10;3.70;;;;;;;21.97;44.39;101316.84;5039899;28;20063;-72
2022/05/09 10:16:34;;;;;;;6.75;4.22;;;;;;;21.99;44.57;101315.78;5038930;28;20052;-71
2022/05/09 10:19:03;;;;;;;6.63;3.90;;;;;;;21.99;44.95;101317.59;5043841;28;20057;-69
2022/05/09 10:27:32;;;;;;;4.97;3.80;;;;;;;22.34;43.77;101303.97;5042228;28;20076;-75
2022/05/09 10:30:03;;;;;;;6.82;3.95;;;;;;;22.43;43.75;101295.09;5039349;28;20820;-72
2022/05/09 10:32:40;;;;;;;5.05;3.92;;;;;;;22.47;43.14;101299.28;5040810;28;20116;-72
2022/05/09 10:35:24;;;;;;;6.85;4.18;;;;;;;22.61;42.75;101296.28;5043035;28;20134;-70
2022/05/09 10:37:58;;;;;;;10.10;4.65;;;;;;;22.69;41.58;101304.59;5034975;28;20049;-74
2022/05/09 10:40:36;;;;;;;6.32;4.22;;;;;;;22.61;43.25;101292.72;5021730;28;20563;-71
2022/05/09 10:43:08;;;;;;;7.75;4.00;;;;;;;22.66;41.07;101280.56;5041097;28;20045;-72
2022/05/09 10:45:44;;;;;;;8.13;4.50;;;;;;;22.89;41.55;101288.59;5035858;28;20045;-71
2022/05/09 10:48:21;;;;;;;8.07;5.00;;;;;;;22.99;41.20;101289.53;5039154;28;20128;-75
2022/05/09 10:50:52;;;;;;;8.02;4.00;;;;;;;23.02;41.32;101286.56;5038015;28;20046;-71
2022/05/09 10:53:39;;;;;;;9.07;4.50;;;;;;;23.11;40.76;101269.59;5041970;28;20462;-70
2022/05/09 10:56:09;;;;;;;5.55;3.75;;;;;;;23.18;40.45;101262.66;5038835;28;20064;-74
2022/05/09 10:58:53;;;;;;;7.22;4.32;;;;;;;23.35;39.85;101275.56;5035771;28;20489;-76
2022/05/09 11:01:29;;;;;;;5.20;4.13;;;;;;;23.30;40.00;101272.41;5039640;28;20394;-70
2022/05/09 11:03:56;;;;;;;6.78;4.45;;;;;;;23.28;40.01;101268.13;5035393;28;20047;-73
2022/05/09 11:07:00;;;;;;;4.47;3.97;;;;;;;23.26;39.51;101270.13;5032778;28;20140;-70
2022/05/09 11:09:51;;;;;;;6.80;4.05;;;;;;;23.28;39.67;101260.03;5037400;28;20053;-72
2022/05/09 11:12:24;;;;;;;5.88;4.45;;;;;;;23.36;40.23;101263.78;5039408;28;20123;-73
2022/05/09 11:15:05;;;;;;;4.75;3.83;;;;;;;23.58;39.93;101260.09;5039061;28;20464;-71
2022/05/09 11:18:09;;;;;;;10.70;4.43;;;;;;;23.52;39.50;101240.84;5041457;28;20567;-70
2022/05/09 11:20:54;;;;;;;6.38;4.30;;;;;;;23.47;39.64;101234.94;5037552;28;20137;-73
2022/05/09 11:23:48;;;;;;;6.97;4.10;;;;;;;23.62;38.61;101247.13;5021687;28;20080;-77
2022/05/09 11:26:39;;;;;;;6.50;4.20;;;;;;;23.69;37.87;101234.81;5041687;28;20083;-71
2022/05/09 11:29:53;;;;;;;7.70;4.40;;;;;;;23.82;37.88;101230.00;5039462;28;20132;-71
2022/05/09 11:32:52;;;;;;;5.32;4.00;;;;;;;24.03;37.93;101219.97;4981564;28;20394;-74
2022/05/09 11:35:36;;;;;;;4.80;3.83;;;;;;;24.05;37.60;101204.47;4981781;28;20054;-74
2022/05/09 11:38:32;;;;;;;6.60;3.92;;;;;;;24.22;37.87;101232.69;5035327;28;20060;-70
2022/05/09 11:41:11;;;;;;;5.90;4.05;;;;;;;24.38;37.23;101232.19;5035863;28;20041;-70
2022/05/09 11:44:09;;;;;;;6.95;4.22;;;;;;;24.57;36.95;101226.75;5032726;28;20147;-68
2022/05/09 11:46:47;;;;;;;5.93;4.07;;;;;;;24.47;36.89;101223.19;5045575;28;20493;-72
2022/05/09 11:49:32;;;;;;;8.60;4.18;;;;;;;24.32;37.44;101194.84;5036383;28;20048;-70
2022/05/09 11:52:06;;;;;;;7.38;4.65;;;;;;;24.55;36.88;101222.50;5041942;28;20454;-71
2022/05/09 11:54:41;;;;;;;5.50;4.28;;;;;;;24.50;36.61;101205.81;5029528;28;20057;-70
2022/05/09 11:57:32;;;;;;;6.97;4.47;;;;;;;24.36;37.81;101215.22;5040465;28;20476;-72
2022/05/09 12:00:02;;;;;;;10.70;7.65;;;;;;;23.87;38.39;101214.22;5043549;28;20156;-73
2022/05/09 12:02:44;;;;;;;8.23;4.40;;;;;;;23.41;39.15;101196.66;5022017;28;20259;-72